sensor_id;sensor_type;location;lat;lon;timestamp;pressure;altitude;pressure_sealevel;temperature;humidity
31044;BME280;17710;52.520;13.352;2023-12-20T00:00:18;100621.25;;;9.82;98.58
31044;BME280;17710;52.520;13.352;2023-12-20T00:02:45;100620.03;;;9.66;100.00
31044;BME280;17710;52.520;13.352;2023-12-20T00:05:12;100616.66;;;9.36;100.00
31044;BME280;17710;52.520;13.352;2023-12-20T00:07:38;100617.28;;;9.44;100.00
31044;BME280;17710;52.520;13.352;2023-12-20T00:10:06;100617.28;;;9.44;100.00
31044;BME280;17710;52.520;13.352;2023-12-20T00:12:34;100619.41;;;9.05;100.00
31044;BME280;17710;52.520;13.352;2023-12-20T00:15:00;100618.81;;;9.24;100.00
31044;BME280;17710;52.520;13.352;2023-12-20T00:17:26;100606.06;;;8.82;100.00
31044;BME280;17710;52.520;13.352;2023-12-20T00:19:53;100598.47;;;9.27;100.00
31044;BME280;17710;52.520;13.352;2023-12-20T00:22:19;100603.78;;;9.26;100.00
31044;BME280;17710;52.520;13.352;2023-12-20T00:24:46;100597.41;;;9.59;100.00
31044;BME280;17710;52.520;13.352;2023-12-20T00:27:12;100590.31;;;9.61;100.00
31044;BME280;17710;52.520;13.352;2023-12-20T00:29:40;100593.41;;;9.21;100.00
31044;BME280;17710;52.520;13.352;2023-12-20T00:32:08;100597.19;;;9.65;100.00
31044;BME280;17710;52.520;13.352;2023-12-20T00:34:34;100588.97;;;9.99;98.73
31044;BME280;17710;52.520;13.352;2023-12-20T00:37:01;100588.59;;;9.60;99.72
31044;BME280;17710;52.520;13.352;2023-12-20T00:39:27;100585.16;;;9.58;100.00
31044;BME280;17710;52.520;13.352;2023-12-20T00:41:53;100590.34;;;9.86;100.00
31044;BME280;17710;52.520;13.352;2023-12-20T00:44:20;100584.19;;;9.85;100.00
31044;BME280;17710;52.520;13.352;2023-12-20T00:46:48;100584.47;;;10.03;98.67
31044;BME280;17710;52.520;13.352;2023-12-20T00:49:14;100578.69;;;9.91;98.52
31044;BME280;17710;52.520;13.352;2023-12-20T00:51:41;100589.06;;;9.97;99.47
31044;BME280;17710;52.520;13.352;2023-12-20T00:54:07;100579.25;;;9.76;99.30
31044;BME280;17710;52.520;13.352;2023-12-20T00:56:34;100575.72;;;10.25;97.48
31044;BME280;17710;52.520;13.352;2023-12-20T00:59:01;100585.22;;;10.06;97.63
31044;BME280;17710;52.520;13.352;2023-12-20T01:01:27;100594.88;;;9.82;99.46
31044;BME280;17710;52.520;13.352;2023-12-20T01:03:55;100591.47;;;9.52;100.00
31044;BME280;17710;52.520;13.352;2023-12-20T01:06:21;100595.72;;;9.58;100.00
31044;BME280;17710;52.520;13.352;2023-12-20T01:08:48;100601.75;;;9.86;100.00
31044;BME280;17710;52.520;13.352;2023-12-20T01:11:14;100594.84;;;10.07;99.20
31044;BME280;17710;52.520;13.352;2023-12-20T01:13:41;100589.25;;;9.91;98.83
31044;BME280;17710;52.520;13.352;2023-12-20T01:16:09;100595.56;;;9.36;100.00
31044;BME280;17710;52.520;13.352;2023-12-20T01:18:36;100601.28;;;9.49;100.00
31044;BME280;17710;52.520;13.352;2023-12-20T01:21:05;100593.66;;;9.66;100.00
31044;BME280;17710;52.520;13.352;2023-12-20T01:23:32;100598.72;;;9.72;100.00
31044;BME280;17710;52.520;13.352;2023-12-20T01:25:58;100594.78;;;9.33;100.00
31044;BME280;17710;52.520;13.352;2023-12-20T01:28:25;100596.09;;;9.46;100.00
31044;BME280;17710;52.520;13.352;2023-12-20T01:30:51;100601.78;;;9.60;100.00
31044;BME280;17710;52.520;13.352;2023-12-20T01:33:18;100598.81;;;9.44;100.00
31044;BME280;17710;52.520;13.352;2023-12-20T01:35:45;100594.78;;;9.33;100.00
31044;BME280;17710;52.520;13.352;2023-12-20T01:38:13;100597.78;;;9.75;100.00
31044;BME280;17710;52.520;13.352;2023-12-20T01:40:43;100595.94;;;9.77;100.00
31044;BME280;17710;52.520;13.352;2023-12-20T01:43:10;100594.47;;;9.68;100.00
31044;BME280;17710;52.520;13.352;2023-12-20T01:45:37;100585.19;;;9.83;100.00
31044;BME280;17710;52.520;13.352;2023-12-20T01:48:05;100583.72;;;9.74;100.00
31044;BME280;17710;52.520;13.352;2023-12-20T01:50:32;100580.16;;;9.75;100.00
31044;BME280;17710;52.520;13.352;2023-12-20T01:53:00;100580.31;;;9.95;99.83
31044;BME280;17710;52.520;13.352;2023-12-20T01:55:31;100589.25;;;9.91;100.00
31044;BME280;17710;52.520;13.352;2023-12-20T01:57:58;100593.09;;;10.56;97.75
31044;BME280;17710;52.520;13.352;2023-12-20T02:00:26;100589.31;;;10.85;95.46
31044;BME280;17710;52.520;13.352;2023-12-20T02:02:54;100593.41;;;10.93;94.25
31044;BME280;17710;52.520;13.352;2023-12-20T02:05:21;100589.97;;;11.13;94.09
31044;BME280;17710;52.520;13.352;2023-12-20T02:07:48;100582.94;;;11.34;92.01
31044;BME280;17710;52.520;13.352;2023-12-20T02:10:15;100576.94;;;11.50;89.82
31044;BME280;17710;52.520;13.352;2023-12-20T02:12:43;100573.25;;;11.54;89.12
31044;BME280;17710;52.520;13.352;2023-12-20T02:15:10;100571.22;;;11.61;88.47
31044;BME280;17710;52.520;13.352;2023-12-20T02:17:36;100574.16;;;11.33;88.29
31044;BME280;17710;52.520;13.352;2023-12-20T02:20:05;100577.16;;;10.81;92.33
31044;BME280;17710;52.520;13.352;2023-12-20T02:22:33;100572.41;;;10.67;93.55
31044;BME280;17710;52.520;13.352;2023-12-20T02:25:00;100561.78;;;10.68;93.58
31044;BME280;17710;52.520;13.352;2023-12-20T02:27:27;100567.16;;;10.65;93.99
31044;BME280;17710;52.520;13.352;2023-12-20T02:29:55;100561.66;;;10.25;96.08
31044;BME280;17710;52.520;13.352;2023-12-20T02:32:22;100567.66;;;10.30;96.65
31044;BME280;17710;52.520;13.352;2023-12-20T02:34:51;100575.91;;;10.21;96.68
31044;BME280;17710;52.520;13.352;2023-12-20T02:37:17;100576.22;;;9.87;97.78
31044;BME280;17710;52.520;13.352;2023-12-20T02:39:45;100564.38;;;9.98;98.38
31044;BME280;17710;52.520;13.352;2023-12-20T02:42:11;100556.63;;;10.19;97.90
31044;BME280;17710;52.520;13.352;2023-12-20T02:44:38;100559.50;;;10.36;96.14
31044;BME280;17710;52.520;13.352;2023-12-20T02:47:04;100563.97;;;10.34;95.03
31044;BME280;17710;52.520;13.352;2023-12-20T02:49:31;100571.09;;;10.55;94.69
31044;BME280;17710;52.520;13.352;2023-12-20T02:51:57;100572.69;;;10.83;93.34
31044;BME280;17710;52.520;13.352;2023-12-20T02:54:24;100564.75;;;10.83;92.24
31044;BME280;17710;52.520;13.352;2023-12-20T02:56:51;100572.69;;;10.59;92.72
31044;BME280;17710;52.520;13.352;2023-12-20T02:59:18;100568.31;;;10.58;93.39
31044;BME280;17710;52.520;13.352;2023-12-20T03:01:45;100571.00;;;10.80;92.20
31044;BME280;17710;52.520;13.352;2023-12-20T03:04:12;100560.53;;;10.77;91.72
31044;BME280;17710;52.520;13.352;2023-12-20T03:06:38;100568.78;;;10.69;92.85
31044;BME280;17710;52.520;13.352;2023-12-20T03:09:05;100577.78;;;10.87;90.94
31044;BME280;17710;52.520;13.352;2023-12-20T03:11:31;100569.00;;;10.87;90.28
31044;BME280;17710;52.520;13.352;2023-12-20T03:13:59;100580.19;;;11.15;89.02
31044;BME280;17710;52.520;13.352;2023-12-20T03:16:26;100581.28;;;11.31;88.32
31044;BME280;17710;52.520;13.352;2023-12-20T03:18:52;100573.47;;;11.28;87.16
31044;BME280;17710;52.520;13.352;2023-12-20T03:21:19;100582.19;;;11.30;86.77
31044;BME280;17710;52.520;13.352;2023-12-20T03:23:45;100583.13;;;11.71;84.87
31044;BME280;17710;52.520;13.352;2023-12-20T03:26:11;100580.75;;;11.43;85.25
31044;BME280;17710;52.520;13.352;2023-12-20T03:28:38;100575.47;;;11.43;85.43
31044;BME280;17710;52.520;13.352;2023-12-20T03:31:06;100579.84;;;11.44;84.87
31044;BME280;17710;52.520;13.352;2023-12-20T03:33:32;100581.09;;;11.78;83.23
31044;BME280;17710;52.520;13.352;2023-12-20T03:35:59;100579.06;;;11.84;82.73
31044;BME280;17710;52.520;13.352;2023-12-20T03:38:25;100576.34;;;11.86;82.24
31044;BME280;17710;52.520;13.352;2023-12-20T03:40:52;100574.50;;;11.88;81.87
31044;BME280;17710;52.520;13.352;2023-12-20T03:43:18;100583.88;;;11.95;81.75
31044;BME280;17710;52.520;13.352;2023-12-20T03:45:44;100576.72;;;11.77;82.32
31044;BME280;17710;52.520;13.352;2023-12-20T03:48:12;100571.09;;;11.42;82.64
31044;BME280;17710;52.520;13.352;2023-12-20T03:50:39;100573.03;;;11.17;84.47
31044;BME280;17710;52.520;13.352;2023-12-20T03:53:05;100567.94;;;11.34;83.97
31044;BME280;17710;52.520;13.352;2023-12-20T03:55:31;100570.69;;;11.31;83.32
31044;BME280;17710;52.520;13.352;2023-12-20T03:57:58;100578.41;;;11.57;82.72
31044;BME280;17710;52.520;13.352;2023-12-20T04:00:24;100560.06;;;11.33;82.96
31044;BME280;17710;52.520;13.352;2023-12-20T04:02:51;100556.41;;;11.15;83.73
31044;BME280;17710;52.520;13.352;2023-12-20T04:05:19;100557.00;;;11.00;83.81
31044;BME280;17710;52.520;13.352;2023-12-20T04:07:46;100559.28;;;11.09;83.16
31044;BME280;17710;52.520;13.352;2023-12-20T04:10:12;100559.91;;;11.36;82.00
31044;BME280;17710;52.520;13.352;2023-12-20T04:12:39;100543.22;;;11.35;81.90
31044;BME280;17710;52.520;13.352;2023-12-20T04:15:06;100541.78;;;10.83;82.70
31044;BME280;17710;52.520;13.352;2023-12-20T04:17:34;100549.25;;;11.17;81.99
31044;BME280;17710;52.520;13.352;2023-12-20T04:20:01;100542.47;;;11.10;82.30
31044;BME280;17710;52.520;13.352;2023-12-20T04:22:29;100532.41;;;10.76;82.77
31044;BME280;17710;52.520;13.352;2023-12-20T04:24:55;100538.78;;;10.70;83.43
31044;BME280;17710;52.520;13.352;2023-12-20T04:27:21;100540.38;;;10.53;84.43
31044;BME280;17710;52.520;13.352;2023-12-20T04:29:48;100533.19;;;10.56;84.07
31044;BME280;17710;52.520;13.352;2023-12-20T04:32:14;100531.38;;;10.57;83.83
31044;BME280;17710;52.520;13.352;2023-12-20T04:34:41;100530.84;;;10.70;83.60
31044;BME280;17710;52.520;13.352;2023-12-20T04:37:07;100543.91;;;10.75;82.28
31044;BME280;17710;52.520;13.352;2023-12-20T04:39:35;100541.56;;;10.44;83.55
31044;BME280;17710;52.520;13.352;2023-12-20T04:42:01;100548.69;;;10.19;85.60
31044;BME280;17710;52.520;13.352;2023-12-20T04:44:27;100542.53;;;10.18;84.97
31044;BME280;17710;52.520;13.352;2023-12-20T04:46:54;100542.09;;;9.82;87.68
31044;BME280;17710;52.520;13.352;2023-12-20T04:49:21;100548.28;;;9.56;88.33
31044;BME280;17710;52.520;13.352;2023-12-20T04:51:48;100545.53;;;9.33;89.35
31044;BME280;17710;52.520;13.352;2023-12-20T04:54:14;100536.06;;;9.28;90.24
31044;BME280;17710;52.520;13.352;2023-12-20T04:56:42;100536.69;;;9.36;90.03
31044;BME280;17710;52.520;13.352;2023-12-20T04:59:08;100535.13;;;9.80;88.26
31044;BME280;17710;52.520;13.352;2023-12-20T05:01:35;100542.94;;;9.83;87.04
31044;BME280;17710;52.520;13.352;2023-12-20T05:04:01;100550.22;;;9.76;87.30
31044;BME280;17710;52.520;13.352;2023-12-20T05:06:27;100541.28;;;9.80;87.05
31044;BME280;17710;52.520;13.352;2023-12-20T05:08:54;100551.06;;;9.52;88.35
31044;BME280;17710;52.520;13.352;2023-12-20T05:11:20;100556.41;;;9.75;88.10
31044;BME280;17710;52.520;13.352;2023-12-20T05:13:48;100546.06;;;9.69;87.31
31044;BME280;17710;52.520;13.352;2023-12-20T05:16:14;100553.09;;;9.70;87.69
31044;BME280;17710;52.520;13.352;2023-12-20T05:18:43;100548.69;;;8.92;90.68
31044;BME280;17710;52.520;13.352;2023-12-20T05:21:09;100548.53;;;8.68;92.68
31044;BME280;17710;52.520;13.352;2023-12-20T05:23:35;100548.72;;;8.62;91.55
31044;BME280;17710;52.520;13.352;2023-12-20T05:26:02;100562.03;;;8.58;93.08
31044;BME280;17710;52.520;13.352;2023-12-20T05:28:28;100553.41;;;8.53;92.38
31044;BME280;17710;52.520;13.352;2023-12-20T05:30:56;100562.03;;;8.58;91.64
31044;BME280;17710;52.520;13.352;2023-12-20T05:33:23;100558.97;;;8.71;90.35
31044;BME280;17710;52.520;13.352;2023-12-20T05:35:50;100554.22;;;8.83;90.75
31044;BME280;17710;52.520;13.352;2023-12-20T05:38:16;100547.38;;;8.77;90.79
31044;BME280;17710;52.520;13.352;2023-12-20T05:40:43;100547.59;;;8.71;90.99
31044;BME280;17710;52.520;13.352;2023-12-20T05:43:09;100550.94;;;8.16;92.39
31044;BME280;17710;52.520;13.352;2023-12-20T05:45:36;100547.09;;;8.27;93.27
31044;BME280;17710;52.520;13.352;2023-12-20T05:48:04;100540.03;;;8.31;93.46
31044;BME280;17710;52.520;13.352;2023-12-20T05:50:31;100549.38;;;8.10;93.22
31044;BME280;17710;52.520;13.352;2023-12-20T05:52:57;100542.34;;;8.11;94.85
31044;BME280;17710;52.520;13.352;2023-12-20T05:55:23;100543.13;;;7.82;94.81
31044;BME280;17710;52.520;13.352;2023-12-20T05:57:50;100540.59;;;7.79;95.81
31044;BME280;17710;52.520;13.352;2023-12-20T06:00:17;100544.94;;;8.12;93.86
31044;BME280;17710;52.520;13.352;2023-12-20T06:02:44;100539.09;;;8.33;92.87
31044;BME280;17710;52.520;13.352;2023-12-20T06:05:12;100536.88;;;8.17;93.34
31044;BME280;17710;52.520;13.352;2023-12-20T06:07:38;100529.44;;;8.32;92.74
31044;BME280;17710;52.520;13.352;2023-12-20T06:10:05;100529.53;;;7.68;94.83
31044;BME280;17710;52.520;13.352;2023-12-20T06:12:32;100527.78;;;7.67;95.33
31044;BME280;17710;52.520;13.352;2023-12-20T06:15:00;100527.88;;;7.94;94.63
31044;BME280;17710;52.520;13.352;2023-12-20T06:17:27;100528.53;;;8.02;94.10
31044;BME280;17710;52.520;13.352;2023-12-20T06:19:55;100519.34;;;7.86;94.31
31044;BME280;17710;52.520;13.352;2023-12-20T06:22:23;100522.84;;;7.87;95.20
31044;BME280;17710;52.520;13.352;2023-12-20T06:24:50;100524.34;;;7.95;94.53
31044;BME280;17710;52.520;13.352;2023-12-20T06:27:16;100525.69;;;8.10;92.53
31044;BME280;17710;52.520;13.352;2023-12-20T06:29:42;100531.84;;;7.46;95.17
31044;BME280;17710;52.520;13.352;2023-12-20T06:32:10;100535.56;;;7.70;95.86
31044;BME280;17710;52.520;13.352;2023-12-20T06:34:36;100533.59;;;7.78;95.13
31044;BME280;17710;52.520;13.352;2023-12-20T06:37:03;100537.00;;;7.49;96.09
31044;BME280;17710;52.520;13.352;2023-12-20T06:39:31;100539.63;;;7.49;96.83
31044;BME280;17710;52.520;13.352;2023-12-20T06:41:59;100539.94;;;7.38;97.29
31044;BME280;17710;52.520;13.352;2023-12-20T06:44:25;100527.56;;;7.42;97.30
31044;BME280;17710;52.520;13.352;2023-12-20T06:46:52;100528.38;;;7.44;96.76
31044;BME280;17710;52.520;13.352;2023-12-20T06:49:18;100529.06;;;7.83;95.95
31044;BME280;17710;52.520;13.352;2023-12-20T06:51:45;100523.63;;;7.58;95.60
31044;BME280;17710;52.520;13.352;2023-12-20T06:54:11;100527.28;;;7.52;96.93
31044;BME280;17710;52.520;13.352;2023-12-20T06:56:39;100524.72;;;7.49;97.83
31044;BME280;17710;52.520;13.352;2023-12-20T06:59:06;100530.41;;;7.34;98.14
31044;BME280;17710;52.520;13.352;2023-12-20T07:01:33;100525.06;;;7.37;98.97
31044;BME280;17710;52.520;13.352;2023-12-20T07:03:59;100510.19;;;7.36;96.97
31044;BME280;17710;52.520;13.352;2023-12-20T07:06:25;100509.38;;;7.67;97.01
31044;BME280;17710;52.520;13.352;2023-12-20T07:08:52;100501.50;;;7.67;95.62
31044;BME280;17710;52.520;13.352;2023-12-20T07:11:18;100526.38;;;7.21;97.96
31044;BME280;17710;52.520;13.352;2023-12-20T07:13:46;100519.91;;;7.33;99.31
31044;BME280;17710;52.520;13.352;2023-12-20T07:16:13;100513.28;;;7.52;97.17
31044;BME280;17710;52.520;13.352;2023-12-20T07:18:39;100514.50;;;7.71;96.01
31044;BME280;17710;52.520;13.352;2023-12-20T07:21:08;100508.41;;;7.69;95.37
31044;BME280;17710;52.520;13.352;2023-12-20T07:23:34;100520.47;;;7.45;96.75
31044;BME280;17710;52.520;13.352;2023-12-20T07:26:00;100516.66;;;7.23;96.89
31044;BME280;17710;52.520;13.352;2023-12-20T07:28:27;100507.56;;;7.36;98.46
31044;BME280;17710;52.520;13.352;2023-12-20T07:30:55;100512.00;;;7.67;95.87
31044;BME280;17710;52.520;13.352;2023-12-20T07:33:21;100507.44;;;8.04;94.54
31044;BME280;17710;52.520;13.352;2023-12-20T07:35:48;100501.78;;;8.18;92.80
31044;BME280;17710;52.520;13.352;2023-12-20T07:38:14;100503.34;;;7.94;93.97
31044;BME280;17710;52.520;13.352;2023-12-20T07:40:41;100498.44;;;7.49;95.38
31044;BME280;17710;52.520;13.352;2023-12-20T07:43:08;100507.38;;;7.42;96.50
31044;BME280;17710;52.520;13.352;2023-12-20T07:45:34;100499.34;;;8.10;93.63
31044;BME280;17710;52.520;13.352;2023-12-20T07:48:03;100500.41;;;7.74;94.04
31044;BME280;17710;52.520;13.352;2023-12-20T07:50:30;100502.94;;;7.77;95.16
31044;BME280;17710;52.520;13.352;2023-12-20T07:52:56;100497.09;;;7.67;94.58
31044;BME280;17710;52.520;13.352;2023-12-20T07:55:24;100490.47;;;7.52;95.12
31044;BME280;17710;52.520;13.352;2023-12-20T07:57:51;100499.31;;;7.50;95.42
31044;BME280;17710;52.520;13.352;2023-12-20T08:00:18;100498.63;;;8.05;93.23
31044;BME280;17710;52.520;13.352;2023-12-20T08:02:44;100501.72;;;7.57;94.61
31044;BME280;17710;52.520;13.352;2023-12-20T08:05:12;100495.91;;;7.46;94.13
31044;BME280;17710;52.520;13.352;2023-12-20T08:07:40;100497.41;;;7.55;94.28
31044;BME280;17710;52.520;13.352;2023-12-20T08:10:10;100495.91;;;7.77;95.14
31044;BME280;17710;52.520;13.352;2023-12-20T08:12:36;100498.09;;;8.23;92.26
31044;BME280;17710;52.520;13.352;2023-12-20T08:15:06;100501.31;;;7.73;92.68
31044;BME280;17710;52.520;13.352;2023-12-20T08:17:32;100508.69;;;7.91;93.51
31044;BME280;17710;52.520;13.352;2023-12-20T08:19:59;100509.47;;;7.62;94.48
31044;BME280;17710;52.520;13.352;2023-12-20T08:22:26;100510.06;;;7.41;95.00
31044;BME280;17710;52.520;13.352;2023-12-20T08:24:53;100504.41;;;7.22;96.27
31044;BME280;17710;52.520;13.352;2023-12-20T08:27:19;100501.72;;;7.88;94.00
31044;BME280;17710;52.520;13.352;2023-12-20T08:29:46;100500.44;;;8.03;91.58
31044;BME280;17710;52.520;13.352;2023-12-20T08:32:13;100504.59;;;8.12;91.63
31044;BME280;17710;52.520;13.352;2023-12-20T08:34:39;100503.97;;;8.61;89.15
31044;BME280;17710;52.520;13.352;2023-12-20T08:37:06;100491.47;;;7.81;92.00
31044;BME280;17710;52.520;13.352;2023-12-20T08:39:33;100490.78;;;8.62;89.66
31044;BME280;17710;52.520;13.352;2023-12-20T08:42:00;100485.06;;;9.02;87.42
31044;BME280;17710;52.520;13.352;2023-12-20T08:44:26;100487.00;;;8.97;87.32
31044;BME280;17710;52.520;13.352;2023-12-20T08:46:53;100490.13;;;8.26;89.42
31044;BME280;17710;52.520;13.352;2023-12-20T08:49:22;100484.25;;;7.87;92.51
31044;BME280;17710;52.520;13.352;2023-12-20T08:51:48;100475.63;;;8.41;90.31
31044;BME280;17710;52.520;13.352;2023-12-20T08:54:15;100486.13;;;8.13;91.33
31044;BME280;17710;52.520;13.352;2023-12-20T08:56:43;100486.81;;;7.89;92.28
31044;BME280;17710;52.520;13.352;2023-12-20T08:59:10;100479.63;;;8.25;90.56
31044;BME280;17710;52.520;13.352;2023-12-20T09:01:37;100484.03;;;8.24;90.13
31044;BME280;17710;52.520;13.352;2023-12-20T09:04:04;100477.06;;;7.61;92.90
31044;BME280;17710;52.520;13.352;2023-12-20T09:06:31;100476.13;;;8.24;92.41
31044;BME280;17710;52.520;13.352;2023-12-20T09:08:57;100468.16;;;8.83;88.27
31044;BME280;17710;52.520;13.352;2023-12-20T09:11:24;100475.19;;;8.83;87.16
31044;BME280;17710;52.520;13.352;2023-12-20T09:13:52;100466.53;;;7.94;89.64
31044;BME280;17710;52.520;13.352;2023-12-20T09:16:18;100471.84;;;7.91;91.80
31044;BME280;17710;52.520;13.352;2023-12-20T09:18:44;100469.38;;;8.45;90.73
31044;BME280;17710;52.520;13.352;2023-12-20T09:21:11;100463.34;;;8.12;89.55
31044;BME280;17710;52.520;13.352;2023-12-20T09:23:37;100461.69;;;8.08;91.07
31044;BME280;17710;52.520;13.352;2023-12-20T09:26:04;100451.72;;;7.90;91.56
31044;BME280;17710;52.520;13.352;2023-12-20T09:28:30;100463.53;;;7.75;92.55
31044;BME280;17710;52.520;13.352;2023-12-20T09:31:03;100454.34;;;8.49;88.90
31044;BME280;17710;52.520;13.352;2023-12-20T09:33:30;100451.50;;;8.55;89.07
31044;BME280;17710;52.520;13.352;2023-12-20T09:35:57;100443.47;;;8.59;87.33
31044;BME280;17710;52.520;13.352;2023-12-20T09:38:23;100453.84;;;8.36;88.04
31044;BME280;17710;52.520;13.352;2023-12-20T09:40:50;100444.81;;;8.15;90.25
31044;BME280;17710;52.520;13.352;2023-12-20T09:43:19;100441.56;;;8.36;87.92
31044;BME280;17710;52.520;13.352;2023-12-20T09:45:47;100456.09;;;8.48;86.62
31044;BME280;17710;52.520;13.352;2023-12-20T09:48:17;100444.50;;;8.26;87.76
31044;BME280;17710;52.520;13.352;2023-12-20T09:50:44;100449.88;;;8.51;87.22
31044;BME280;17710;52.520;13.352;2023-12-20T09:53:15;100444.34;;;8.60;86.37
31044;BME280;17710;52.520;13.352;2023-12-20T09:55:41;100434.16;;;8.20;87.39
31044;BME280;17710;52.520;13.352;2023-12-20T09:58:08;100449.25;;;8.43;87.13
31044;BME280;17710;52.520;13.352;2023-12-20T10:00:35;100448.28;;;8.47;86.20
31044;BME280;17710;52.520;13.352;2023-12-20T10:03:02;100437.75;;;8.17;88.03
31044;BME280;17710;52.520;13.352;2023-12-20T10:05:32;100431.19;;;8.01;88.93
31044;BME280;17710;52.520;13.352;2023-12-20T10:07:59;100420.59;;;8.04;88.24
31044;BME280;17710;52.520;13.352;2023-12-20T10:10:26;100433.81;;;7.73;90.09
31044;BME280;17710;52.520;13.352;2023-12-20T10:13:03;100428.81;;;7.93;89.99
31044;BME280;17710;52.520;13.352;2023-12-20T10:15:29;100414.34;;;7.79;89.08
31044;BME280;17710;52.520;13.352;2023-12-20T10:17:57;100416.69;;;8.47;87.65
31044;BME280;17710;52.520;13.352;2023-12-20T10:20:23;100413.53;;;8.62;85.36
31044;BME280;17710;52.520;13.352;2023-12-20T10:22:51;100404.34;;;8.47;85.83
31044;BME280;17710;52.520;13.352;2023-12-20T10:25:18;100394.34;;;8.58;86.05
31044;BME280;17710;52.520;13.352;2023-12-20T10:27:45;100406.16;;;8.47;85.52
31044;BME280;17710;52.520;13.352;2023-12-20T10:30:12;100391.75;;;8.57;85.54
31044;BME280;17710;52.520;13.352;2023-12-20T10:32:39;100391.34;;;8.69;84.70
31044;BME280;17710;52.520;13.352;2023-12-20T10:35:06;100379.75;;;8.99;83.50
31044;BME280;17710;52.520;13.352;2023-12-20T10:37:35;100388.22;;;9.09;82.47
31044;BME280;17710;52.520;13.352;2023-12-20T10:40:03;100383.84;;;8.57;84.23
31044;BME280;17710;52.520;13.352;2023-12-20T10:42:31;100365.41;;;8.83;83.48
31044;BME280;17710;52.520;13.352;2023-12-20T10:44:59;100364.38;;;8.61;84.05
31044;BME280;17710;52.520;13.352;2023-12-20T10:47:26;100367.53;;;8.72;83.89
31044;BME280;17710;52.520;13.352;2023-12-20T10:49:52;100352.22;;;8.58;84.60
31044;BME280;17710;52.520;13.352;2023-12-20T10:52:19;100354.91;;;8.82;84.04
31044;BME280;17710;52.520;13.352;2023-12-20T10:54:49;100350.34;;;8.87;83.17
31044;BME280;17710;52.520;13.352;2023-12-20T10:57:18;100344.06;;;8.91;82.77
31044;BME280;17710;52.520;13.352;2023-12-20T10:59:44;100350.13;;;8.93;83.41
31044;BME280;17710;52.520;13.352;2023-12-20T11:02:12;100333.31;;;8.97;82.09
31044;BME280;17710;52.520;13.352;2023-12-20T11:04:47;100327.81;;;8.53;83.74
31044;BME280;17710;52.520;13.352;2023-12-20T11:07:22;100324.81;;;8.89;82.90
31044;BME280;17710;52.520;13.352;2023-12-20T11:09:57;100327.75;;;8.79;83.15
31044;BME280;17710;52.520;13.352;2023-12-20T11:12:34;100319.03;;;8.53;85.16
31044;BME280;17710;52.520;13.352;2023-12-20T11:15:03;100317.84;;;8.61;87.10
31044;BME280;17710;52.520;13.352;2023-12-20T11:17:31;100311.31;;;8.20;89.09
31044;BME280;17710;52.520;13.352;2023-12-20T11:20:06;100314.34;;;8.61;88.56
31044;BME280;17710;52.520;13.352;2023-12-20T11:22:33;100296.59;;;9.39;84.72
31044;BME280;17710;52.520;13.352;2023-12-20T11:25:03;100301.81;;;9.40;83.34
31044;BME280;17710;52.520;13.352;2023-12-20T11:27:31;100285.31;;;9.35;82.97
31044;BME280;17710;52.520;13.352;2023-12-20T11:29:58;100287.31;;;9.05;84.93
31044;BME280;17710;52.520;13.352;2023-12-20T11:32:29;100286.50;;;9.50;82.38
31044;BME280;17710;52.520;13.352;2023-12-20T11:34:56;100283.22;;;9.20;84.95
31044;BME280;17710;52.520;13.352;2023-12-20T11:37:28;100284.44;;;9.58;82.98
31044;BME280;17710;52.520;13.352;2023-12-20T11:39:55;100268.75;;;9.08;84.90
31044;BME280;17710;52.520;13.352;2023-12-20T11:42:22;100261.66;;;9.10;84.47
31044;BME280;17710;52.520;13.352;2023-12-20T11:44:50;100249.84;;;8.97;84.10
31044;BME280;17710;52.520;13.352;2023-12-20T11:47:16;100251.56;;;8.98;84.60
31044;BME280;17710;52.520;13.352;2023-12-20T11:49:44;100252.66;;;8.68;86.80
31044;BME280;17710;52.520;13.352;2023-12-20T11:52:12;100245.03;;;8.85;85.97
31044;BME280;17710;52.520;13.352;2023-12-20T11:54:38;100247.72;;;8.59;87.51
31044;BME280;17710;52.520;13.352;2023-12-20T11:57:05;100239.44;;;8.45;88.11
31044;BME280;17710;52.520;13.352;2023-12-20T11:59:31;100235.03;;;8.93;85.95
31044;BME280;17710;52.520;13.352;2023-12-20T12:01:59;100219.72;;;8.79;86.47
31044;BME280;17710;52.520;13.352;2023-12-20T12:04:26;100214.59;;;9.23;84.38
31044;BME280;17710;52.520;13.352;2023-12-20T12:06:53;100215.53;;;9.44;83.13
31044;BME280;17710;52.520;13.352;2023-12-20T12:09:19;100197.63;;;9.74;81.91
31044;BME280;17710;52.520;13.352;2023-12-20T12:11:46;100200.75;;;9.18;82.64
31044;BME280;17710;52.520;13.352;2023-12-20T12:14:14;100199.06;;;9.15;82.43
31044;BME280;17710;52.520;13.352;2023-12-20T12:16:41;100176.72;;;9.02;82.65
31044;BME280;17710;52.520;13.352;2023-12-20T12:19:20;100186.44;;;8.78;85.39
31044;BME280;17710;52.520;13.352;2023-12-20T12:21:46;100166.31;;;9.44;83.20
31044;BME280;17710;52.520;13.352;2023-12-20T12:24:13;100169.34;;;9.77;81.35
31044;BME280;17710;52.520;13.352;2023-12-20T12:26:39;100150.81;;;10.21;79.34
31044;BME280;17710;52.520;13.352;2023-12-20T12:29:07;100159.91;;;9.50;81.42
31044;BME280;17710;52.520;13.352;2023-12-20T12:31:34;100166.91;;;9.51;82.97
31044;BME280;17710;52.520;13.352;2023-12-20T12:34:01;100164.00;;;9.13;85.69
31044;BME280;17710;52.520;13.352;2023-12-20T12:36:29;100145.41;;;8.71;87.97
31044;BME280;17710;52.520;13.352;2023-12-20T12:38:56;100154.09;;;8.73;88.94
31044;BME280;17710;52.520;13.352;2023-12-20T12:41:22;100145.00;;;8.82;89.63
31044;BME280;17710;52.520;13.352;2023-12-20T12:43:49;100148.50;;;8.83;89.46